Stations météo

réclame
Mon MeteoGroup
Mumbles, Grande-Bretagne (3609): Température de l'air & dewpoint: 09.11.2018 21:00:00 - 15.11.2018 21:00:00 (GMT)Mumbles, Grande-Bretagne (3609): Vitesse du vent & gusts: 09.11.2018 21:00:00 - 15.11.2018 21:00:00 (GMT)Mumbles, Grande-Bretagne (3609): Direction du vent: 09.11.2018 21:00:00 - 15.11.2018 21:00:00 (GMT)Mumbles, Grande-Bretagne (3609): reduced air pressure: 09.11.2018 21:00:00 - 15.11.2018 21:00:00 (GMT)Mumbles, Grande-Bretagne (3609): Quantités de précipitations: 09.11.2018 21:00:00 - 15.11.2018 21:00:00 (GMT)
Date & Time tt [°C] td [°C] ff [km/h] ff [knt] fx [km/h] fx [knt] dd ppp [hPa] rr [mm]
15.11.2018 21:00:00 12,3 11,9 15 8 - - SSE 1020,1 0,0
15.11.2018 20:00:00 12,5 11,9 26 14 - - SE 1019,4 0,0
15.11.2018 19:00:00 12,9 11,9 31 17 - - SE 1018,7 0,0
15.11.2018 18:00:00 12,7 11,9 26 14 - - ESE 1018,4 0,0
15.11.2018 17:00:00 12,9 11,8 31 17 - - E 1018,1 0,0
15.11.2018 16:00:00 12,8 11,1 16 9 - - E 1017,8 0,0
15.11.2018 15:00:00 13,0 10,7 24 13 46 25 ENE 1018,0 0,0
15.11.2018 14:00:00 12,9 10,4 41 22 52 28 E 1017,6 0,0
15.11.2018 13:00:00 12,7 10,5 34 18 48 26 E 1018,2 0,0
15.11.2018 12:00:00 12,2 10,0 35 19 50 27 E 1018,3 0,0
15.11.2018 11:00:00 12,0 9,8 39 21 50 27 E 1018,4 0,0
15.11.2018 10:00:00 12,4 10,0 35 19 46 25 E 1018,5 0,0
15.11.2018 09:00:00 11,3 9,4 24 13 - - E 1018,6 0,0
15.11.2018 08:00:00 10,8 9,3 24 13 - - E 1018,3 0,0
15.11.2018 07:00:00 10,5 9,4 24 13 - - E 1018,1 0,0
15.11.2018 06:00:00 10,4 9,1 28 15 - - E 1018,1 0,0
15.11.2018 05:00:00 10,3 9,3 22 12 - - E 1018,2 0,0
15.11.2018 04:00:00 9,9 8,6 24 13 - - E 1018,4 0,0
15.11.2018 03:00:00 10,0 8,7 22 12 - - E 1018,5 0,0
15.11.2018 02:00:00 10,0 8,6 22 12 - - E 1018,7 0,0
15.11.2018 01:00:00 10,0 8,2 26 14 - - ESE 1018,9 0,0
15.11.2018 00:00:00 10,7 8,1 18 10 - - E 1018,9 0,0
14.11.2018 23:00:00 12,1 8,8 24 13 - - SSE 1019,0 0,0
14.11.2018 22:00:00 12,0 9,0 21 11 - - SE 1019,3 0,0
14.11.2018 21:00:00 12,1 8,6 22 12 - - SSE 1019,4 0,0
14.11.2018 20:00:00 12,2 8,5 26 14 - - SSE 1019,3 0,0
14.11.2018 19:00:00 12,4 8,6 24 13 - - SSE 1019,1 0,0
14.11.2018 18:00:00 12,6 8,7 28 15 - - S 1018,8 0,0
14.11.2018 17:00:00 12,8 8,9 28 15 - - S 1018,7 0,0
14.11.2018 16:00:00 13,1 9,3 26 14 - - S 1018,7 0,0
14.11.2018 15:00:00 13,6 9,7 22 12 - - S 1018,9 0,0
14.11.2018 14:00:00 14,2 9,3 31 17 - - S 1018,9 0,0
14.11.2018 13:00:00 14,2 9,6 31 17 46 25 S 1019,0 0,0
14.11.2018 12:00:00 13,9 9,4 31 17 46 25 S 1019,3 0,0
14.11.2018 11:00:00 13,3 9,5 34 18 48 26 S 1020,0 0,0
14.11.2018 10:00:00 13,5 9,8 41 22 48 26 S 1020,1 0,0
14.11.2018 09:00:00 13,1 9,8 35 19 52 28 S 1019,9 0,0
14.11.2018 08:00:00 12,9 10,1 39 21 48 26 S 1019,6 0,0
14.11.2018 07:00:00 12,9 10,1 34 18 46 25 S 1019,1 0,0
14.11.2018 06:00:00 12,9 10,2 41 22 54 29 S 1019,1 0,0
14.11.2018 05:00:00 12,8 10,1 39 21 52 28 S 1019,1 0,0
14.11.2018 04:00:00 12,7 9,9 39 21 50 27 S 1019,1 0,2
14.11.2018 03:00:00 12,6 9,6 41 22 52 28 S 1019,7 0,0
14.11.2018 02:00:00 12,6 9,7 35 19 52 28 S 1020,2 0,2
14.11.2018 01:00:00 12,6 9,7 37 20 48 26 S 1020,7 0,0
14.11.2018 00:00:00 12,6 9,6 37 20 50 27 S 1021,3 0,0
13.11.2018 23:00:00 12,7 9,4 42 23 59 32 S 1021,4 0,0
13.11.2018 22:00:00 12,6 10,2 37 20 48 26 S 1021,7 0,0
13.11.2018 21:00:00 12,4 10,0 34 18 - - S 1021,9 0,0
13.11.2018 20:00:00 12,3 9,8 39 21 46 25 S 1022,1 0,0
13.11.2018 19:00:00 12,3 9,9 39 21 46 25 S 1022,2 0,0
13.11.2018 18:00:00 12,5 9,5 41 22 48 26 S 1022,2 0,0
13.11.2018 17:00:00 12,4 9,5 34 18 - - SSW 1022,2 0,0
13.11.2018 16:00:00 12,5 9,3 39 21 50 27 SSW 1021,9 0,0
13.11.2018 15:00:00 12,8 9,5 44 24 54 29 SSW 1021,6 0,0
13.11.2018 14:00:00 13,3 9,8 39 21 46 25 SSW 1021,6 0,0
13.11.2018 13:00:00 13,2 8,6 37 20 46 25 SW 1021,7 0,0
13.11.2018 12:00:00 12,8 9,2 39 21 48 26 SW 1021,3 0,0
13.11.2018 11:00:00 12,9 8,4 39 21 48 26 WSW 1021,1 0,0
13.11.2018 10:00:00 12,4 8,4 41 22 52 28 WSW 1020,4 0,0
13.11.2018 09:00:00 11,3 8,6 24 13 52 28 WSW 1019,8 0,4
13.11.2018 08:00:00 11,1 8,2 28 15 50 27 W 1018,4 0,2
13.11.2018 07:00:00 11,4 7,6 26 14 52 28 W 1017,6 0,0
13.11.2018 06:00:00 11,2 6,8 35 19 57 31 W 1016,4 0,0
13.11.2018 05:00:00 11,6 7,4 34 18 52 28 W 1015,1 0,0
13.11.2018 04:00:00 11,6 7,7 37 20 55 30 W 1014,0 0,0
13.11.2018 03:00:00 11,6 8,0 37 20 55 30 WSW 1013,3 0,0
13.11.2018 02:00:00 11,4 7,7 37 20 65 35 W 1012,5 0,2
13.11.2018 01:00:00 11,8 7,8 48 26 57 31 WSW 1011,4 0,0
13.11.2018 00:00:00 11,9 8,1 54 29 65 35 WSW 1010,4 0,0
12.11.2018 23:00:00 11,7 7,8 50 27 67 36 WSW 1009,6 0,0
12.11.2018 22:00:00 10,9 8,8 54 29 68 37 SW 1008,6 0,6
12.11.2018 21:00:00 9,5 7,6 44 24 80 43 WSW 1008,9 1,2
12.11.2018 20:00:00 11,0 8,3 54 29 80 43 SSW 1007,9 0,0
12.11.2018 19:00:00 11,8 8,2 67 36 80 43 SSW 1007,3 0,0
12.11.2018 18:00:00 10,9 8,6 59 32 91 49 SSW 1007,2 1,0
12.11.2018 17:00:00 11,5 7,9 63 34 78 42 SSW 1006,6 0,0
12.11.2018 16:00:00 12,2 9,7 52 28 72 39 SSW 1006,5 0,2
12.11.2018 15:00:00 12,8 8,3 59 32 68 37 SSW 1006,2 0,0
12.11.2018 14:00:00 13,3 9,0 50 27 70 38 SSW 1005,8 0,0
12.11.2018 13:00:00 13,7 9,0 54 29 68 37 SSW 1005,8 0,0
12.11.2018 12:00:00 13,1 9,1 50 27 61 33 SSW 1005,8 0,0
12.11.2018 11:00:00 12,9 9,0 48 26 65 35 S 1006,2 0,0
12.11.2018 10:00:00 12,4 8,8 52 28 63 34 S 1005,8 0,0
12.11.2018 09:00:00 12,3 9,1 52 28 63 34 S 1005,4 0,0
12.11.2018 08:00:00 11,9 9,1 46 25 55 30 S 1005,1 0,0
12.11.2018 07:00:00 11,8 9,4 39 21 50 27 S 1004,6 0,0
12.11.2018 06:00:00 11,8 9,3 42 23 55 30 SSW 1004,2 0,0
12.11.2018 05:00:00 11,5 9,1 46 25 57 31 S 1003,7 0,0
12.11.2018 04:00:00 11,5 9,3 44 24 55 30 S 1003,4 0,0
12.11.2018 03:00:00 11,5 8,9 48 26 57 31 S 1003,2 0,0
12.11.2018 02:00:00 11,6 9,2 48 26 59 32 S 1002,8 0,0
12.11.2018 01:00:00 11,6 9,1 50 27 61 33 S 1002,7 0,0
12.11.2018 00:00:00 11,7 9,1 48 26 57 31 S 1002,6 0,0
11.11.2018 23:00:00 11,8 9,3 42 23 54 29 S 1002,6 0,0
11.11.2018 22:00:00 11,9 9,1 44 24 55 30 S 1002,3 0,0
11.11.2018 21:00:00 12,1 9,2 42 23 55 30 S 1002,0 0,0
11.11.2018 20:00:00 12,0 9,0 48 26 57 31 S 1001,5 0,0
11.11.2018 19:00:00 12,0 8,6 44 24 59 32 S 1001,0 0,0
11.11.2018 18:00:00 12,3 8,1 42 23 54 29 S 1000,4 0,0
11.11.2018 17:00:00 12,5 7,6 52 28 61 33 SSW 999,8 0,0
11.11.2018 16:00:00 12,5 8,0 48 26 57 31 SSW 999,0 0,0
11.11.2018 15:00:00 13,2 8,4 46 25 57 31 SW 998,4 0,0
11.11.2018 14:00:00 13,1 8,1 44 24 57 31 SW 998,2 0,0
11.11.2018 13:00:00 12,9 6,7 48 26 57 31 SW 997,5 0,0
11.11.2018 12:00:00 13,0 8,8 44 24 67 36 SW 996,9 0,0
11.11.2018 11:00:00 11,7 8,1 46 25 57 31 SW 996,0 0,0
11.11.2018 10:00:00 11,4 7,6 39 21 63 34 WSW 995,2 0,0
11.11.2018 09:00:00 11,2 7,8 44 24 63 34 WSW 994,2 0,0
11.11.2018 08:00:00 9,4 7,4 26 14 - - W 993,1 1,2
11.11.2018 07:00:00 9,4 8,1 28 15 46 25 WSW 991,7 0,4
11.11.2018 06:00:00 9,4 7,8 44 24 65 35 WSW 990,7 1,6
11.11.2018 05:00:00 10,3 7,7 54 29 65 35 S 989,9 0,2
11.11.2018 04:00:00 10,9 9,4 39 21 50 27 SSE 990,3 0,6
11.11.2018 03:00:00 11,6 9,1 35 19 - - S 990,7 0,0
11.11.2018 02:00:00 11,2 8,8 31 17 50 27 S 991,3 0,0
11.11.2018 01:00:00 11,1 8,9 37 20 50 27 S 991,8 0,0
11.11.2018 00:00:00 10,9 8,8 37 20 48 26 S 991,8 0,0
10.11.2018 23:00:00 11,0 9,0 37 20 46 25 S 992,0 0,0
10.11.2018 22:00:00 11,0 8,4 41 22 46 25 SSW 992,0 0,0
10.11.2018 21:00:00 11,2 8,6 37 20 - - SSW 992,0 0,0
10.11.2018 20:00:00 11,1 9,1 29 16 50 27 SSW 991,8 0,8
10.11.2018 19:00:00 9,8 8,1 46 25 57 31 SSW 991,8 1,2
10.11.2018 18:00:00 11,5 8,5 28 15 - - SW 991,4 0,0
10.11.2018 17:00:00 11,1 9,2 29 16 54 29 SW 991,1 0,4
10.11.2018 16:00:00 10,8 9,3 35 19 54 29 SSW 990,8 2,4
10.11.2018 15:00:00 11,5 9,7 41 22 55 30 SSW 990,8 0,8
10.11.2018 14:00:00 12,5 9,6 42 23 52 28 SSW 990,5 0,0
10.11.2018 13:00:00 12,3 9,6 41 22 61 33 SSW 990,4 0,0
10.11.2018 12:00:00 11,3 9,5 42 23 59 32 S 990,6 1,6
10.11.2018 11:00:00 11,7 8,2 41 22 54 29 S 990,9 0,2
10.11.2018 10:00:00 11,0 8,2 37 20 74 40 S 991,1 0,2
10.11.2018 09:00:00 11,7 8,4 46 25 55 30 S 991,0 0,0
10.11.2018 08:00:00 11,6 8,9 39 21 54 29 S 991,1 0,0
10.11.2018 07:00:00 11,4 9,2 29 16 63 34 S 991,1 0,0
10.11.2018 06:00:00 11,8 8,6 44 24 59 32 SW 990,9 0,0
10.11.2018 05:00:00 11,8 8,7 50 27 57 31 SW 990,2 0,0
10.11.2018 04:00:00 11,9 8,6 48 26 61 33 SW 990,0 0,0
10.11.2018 03:00:00 10,1 8,1 50 27 68 37 WSW 989,9 2,2
10.11.2018 02:00:00 12,1 9,5 46 25 61 33 SW 989,3 0,0
10.11.2018 01:00:00 12,3 9,7 52 28 59 32 SW 989,0 0,0
10.11.2018 00:00:00 12,5 10,0 46 25 54 29 SW 988,8 0,0
09.11.2018 23:00:00 12,6 10,1 44 24 61 33 SW 988,4 0,0
09.11.2018 22:00:00 12,2 10,7 44 24 80 43 SSW 988,1 2,0
09.11.2018 21:00:00 12,7 11,1 54 29 68 37 S 987,6 1,2

tt = Température de l'air
td = dewpoint
ff = Vitesse du vent
fx = gusts
dd = Direction du vent
ppp = reduced air pressure
rr = Quantités de précipitations

stations d'obs. à proximité